Time;durP1;ratioP1;P1;durP2;ratioP2;P2;SDS_P1;SDS_P2;PMS_P1;PMS_P2;Temp;Humidity;BMP_temperature;BMP_pressure;BME280_temperature;BME280_humidity;BME280_pressure;Samples;Min_cycle;Max_cycle;Signal;HPM_P1;HPM_P2
2024/04/14 00:02:18;;;;;;;1999.90;999.90;;;16.30;99.90;;;;;;5524934;25;19994;-66
2024/04/14 00:04:52;;;;;;;1999.90;999.90;;;16.40;99.90;;;;;;5561157;25;20404;-70
2024/04/14 00:07:19;;;;;;;1999.90;999.90;;;16.40;99.90;;;;;;5560828;25;20485;-70
2024/04/14 00:09:44;;;;;;;1999.90;999.90;;;16.40;99.90;;;;;;5560187;25;20097;-67
2024/04/14 00:12:10;;;;;;;1999.90;999.90;;;16.40;99.90;;;;;;5560880;25;19988;-70
2024/04/14 00:14:36;;;;;;;1999.90;999.90;;;16.40;99.90;;;;;;5560885;25;19993;-67
2024/04/14 00:17:01;;;;;;;1999.90;999.90;;;16.40;99.90;;;;;;5561173;25;20008;-70
2024/04/14 00:19:27;;;;;;;1999.90;999.90;;;16.40;99.90;;;;;;5560897;25;20363;-70
2024/04/14 00:21:53;;;;;;;1999.90;999.90;;;16.40;99.90;;;;;;5561341;25;20025;-66
2024/04/14 00:24:18;;;;;;;1999.90;999.90;;;16.40;99.90;;;;;;5524387;25;20463;-67
2024/04/14 00:26:46;;;;;;;1999.90;999.90;;;16.40;99.90;;;;;;5523556;26;19997;-66
2024/04/14 00:29:11;;;;;;;1999.90;999.90;;;16.40;99.90;;;;;;5523599;26;20002;-70
2024/04/14 00:31:38;;;;;;;1999.90;999.90;;;16.50;99.90;;;;;;5522783;26;20085;-70
2024/04/14 00:34:04;;;;;;;1999.90;999.90;;;16.60;99.90;;;;;;5524700;26;20109;-70
2024/04/14 00:36:30;;;;;;;1999.90;999.90;;;16.50;99.90;;;;;;5525371;26;20309;-66
2024/04/14 00:38:55;;;;;;;1999.90;999.90;;;16.60;99.90;;;;;;5527050;26;20000;-66
2024/04/14 00:41:21;;;;;;;1999.90;999.90;;;16.60;99.90;;;;;;5526791;26;19993;-66
2024/04/14 00:43:46;;;;;;;1999.90;999.90;;;16.60;99.90;;;;;;5526639;26;20005;-70
2024/04/14 00:46:13;;;;;;;1999.90;999.90;;;16.60;99.90;;;;;;5526802;26;19993;-70
2024/04/14 00:48:39;;;;;;;1999.90;999.90;;;16.70;99.90;;;;;;5527088;26;20112;-69
2024/04/14 00:51:06;;;;;;;1999.90;999.90;;;16.60;99.90;;;;;;5526752;25;20049;-66
2024/04/14 00:53:32;;;;;;;1999.90;999.90;;;16.70;99.90;;;;;;5526702;26;20337;-70
2024/04/14 00:55:58;;;;;;;1999.90;999.90;;;16.70;99.90;;;;;;5525601;26;20001;-70
2024/04/14 00:58:25;;;;;;;1999.90;999.90;;;16.70;99.90;;;;;;5526766;26;20038;-70
2024/04/14 01:00:51;;;;;;;1999.90;999.90;;;16.70;99.90;;;;;;5526794;26;19997;-67
2024/04/14 01:03:16;;;;;;;1999.90;999.90;;;16.60;99.90;;;;;;5526425;26;20001;-67
2024/04/14 01:05:42;;;;;;;1999.90;999.90;;;16.70;99.90;;;;;;5526839;26;19997;-70
2024/04/14 01:08:07;;;;;;;1999.90;999.90;;;16.70;99.90;;;;;;5526803;26;19993;-70
2024/04/14 01:10:35;;;;;;;1999.90;999.90;;;16.70;99.90;;;;;;5526455;26;20354;-70
2024/04/14 01:13:00;;;;;;;1999.90;999.90;;;16.70;99.90;;;;;;5524689;26;19997;-66
2024/04/14 01:15:26;;;;;;;1999.90;999.90;;;16.70;99.90;;;;;;5526607;26;20008;-66
2024/04/14 01:17:52;;;;;;;1999.90;999.90;;;16.80;99.90;;;;;;5526300;26;20066;-66
2024/04/14 01:20:18;;;;;;;1999.90;999.90;;;16.80;99.90;;;;;;5526391;26;20017;-70
2024/04/14 01:22:44;;;;;;;1999.90;999.90;;;16.90;99.90;;;;;;5516161;26;20006;-70
2024/04/14 01:25:09;;;;;;;1999.90;999.90;;;16.90;99.90;;;;;;5489568;26;20013;-70
2024/04/14 01:27:36;;;;;;;1999.90;999.90;;;16.90;99.90;;;;;;5489338;26;19994;-66
2024/04/14 01:30:06;;;;;;;1999.90;999.90;;;16.90;99.90;;;;;;5511341;26;20009;-66
2024/04/14 01:32:35;;;;;;;1999.90;999.90;;;16.90;99.90;;;;;;5526155;26;19994;-70
2024/04/14 01:35:01;;;;;;;1999.90;999.90;;;16.90;99.90;;;;;;5526168;26;20436;-71
2024/04/14 01:37:29;;;;;;;1999.90;999.90;;;16.90;99.90;;;;;;5526364;26;20009;-70
2024/04/14 01:39:55;;;;;;;1999.90;999.90;;;16.90;99.90;;;;;;5526114;26;20001;-66
2024/04/14 01:42:22;;;;;;;1999.90;999.90;;;16.80;99.90;;;;;;5526133;26;20037;-70
2024/04/14 01:44:47;;;;;;;1999.90;999.90;;;16.80;99.90;;;;;;5525622;26;19993;-66
2024/04/14 01:47:13;;;;;;;1999.90;999.90;;;16.80;99.90;;;;;;5526020;26;19998;-70
2024/04/14 01:49:38;;;;;;;1999.90;999.90;;;16.70;99.90;;;;;;5525250;26;20000;-66
2024/04/14 01:52:04;;;;;;;1999.90;999.90;;;16.70;99.90;;;;;;5525672;26;20042;-66
2024/04/14 01:54:30;;;;;;;1999.90;999.90;;;16.70;99.90;;;;;;5526193;26;19997;-66
2024/04/14 01:56:56;;;;;;;1999.90;999.90;;;16.70;99.90;;;;;;5525718;26;20497;-70
2024/04/14 01:59:22;;;;;;;1999.90;999.90;;;16.60;99.90;;;;;;5526198;26;19997;-66
2024/04/14 02:01:47;;;;;;;1999.90;999.90;;;16.60;99.90;;;;;;5525292;26;20425;-71
2024/04/14 02:04:13;;;;;;;1999.90;999.90;;;16.50;99.90;;;;;;5525963;26;20317;-70
2024/04/14 02:06:39;;;;;;;1999.90;999.90;;;16.40;99.90;;;;;;5525828;26;20009;-70
2024/04/14 02:09:04;;;;;;;1999.90;999.90;;;16.40;99.90;;;;;;5526206;26;19993;-66
2024/04/14 02:11:30;;;;;;;1999.90;999.90;;;16.30;99.90;;;;;;5526065;26;20069;-66
2024/04/14 02:13:57;;;;;;;1999.90;999.90;;;16.30;99.90;;;;;;5525633;26;19993;-66
2024/04/14 02:16:22;;;;;;;1999.90;999.90;;;16.20;99.90;;;;;;5525921;26;19990;-70
2024/04/14 02:18:48;;;;;;;1999.90;999.90;;;16.10;99.90;;;;;;5525512;26;20404;-66
2024/04/14 02:21:14;;;;;;;1999.90;999.90;;;16.00;99.90;;;;;;5525690;26;19994;-70
2024/04/14 02:23:40;;;;;;;1999.90;999.90;;;15.90;99.90;;;;;;5501018;26;19994;-70
2024/04/14 02:26:07;;;;;;;1999.90;999.90;;;15.90;99.90;;;;;;5488922;26;20005;-66
2024/04/14 02:28:33;;;;;;;1999.90;999.90;;;15.90;99.90;;;;;;5488873;26;19998;-70
2024/04/14 02:30:59;;;;;;;1999.90;999.90;;;15.90;99.90;;;;;;5493502;26;20300;-71
2024/04/14 02:33:25;;;;;;;1999.90;999.90;;;15.90;99.90;;;;;;5525447;26;20029;-70
2024/04/14 02:35:58;;;;;;;1999.90;999.90;;;15.90;99.90;;;;;;5525136;26;19993;-66
2024/04/14 02:38:24;;;;;;;1999.90;999.90;;;15.90;99.90;;;;;;5525401;26;20444;-71
2024/04/14 02:41:04;;;;;;;1999.90;999.90;;;15.90;99.90;;;;;;5525405;26;20001;-66
2024/04/14 02:43:33;;;;;;;1999.90;999.90;;;16.00;99.90;;;;;;5525564;26;20352;-71
2024/04/14 02:45:59;;;;;;;1999.90;999.90;;;16.00;99.90;;;;;;5525130;26;20030;-67
2024/04/14 02:48:25;;;;;;;1999.90;999.90;;;16.00;99.90;;;;;;5525575;26;19994;-67
2024/04/14 02:50:50;;;;;;;1999.90;999.90;;;15.90;99.90;;;;;;5524968;26;20009;-66
2024/04/14 02:53:16;;;;;;;1999.90;999.90;;;15.90;99.90;;;;;;5525109;26;20395;-71
2024/04/14 02:55:42;;;;;;;1999.90;999.90;;;15.90;99.90;;;;;;5524850;26;20009;-67
2024/04/14 02:58:08;;;;;;;1999.90;999.90;;;15.90;99.90;;;;;;5524391;26;19989;-70
2024/04/14 03:00:34;;;;;;;1999.90;999.90;;;15.80;99.90;;;;;;5525262;26;20368;-66
2024/04/14 03:03:00;;;;;;;1999.90;999.90;;;15.80;99.90;;;;;;5524937;26;20009;-67
2024/04/14 03:05:26;;;;;;;1999.90;999.90;;;15.80;99.90;;;;;;5524906;26;19994;-70
2024/04/14 03:07:52;;;;;;;1999.90;999.90;;;15.80;99.90;;;;;;5524897;26;20069;-71
2024/04/14 03:10:18;;;;;;;1999.90;999.90;;;15.80;99.90;;;;;;5524648;26;20326;-66
2024/04/14 03:12:44;;;;;;;1999.90;999.90;;;15.80;99.90;;;;;;5524816;26;20029;-67
2024/04/14 03:15:11;;;;;;;1999.90;999.90;;;15.90;99.90;;;;;;5525652;26;19989;-67
2024/04/14 03:17:36;;;;;;;1999.90;999.90;;;15.90;99.90;;;;;;5525048;25;19994;-67
2024/04/14 03:20:02;;;;;;;1999.90;999.90;;;15.90;99.90;;;;;;5524730;26;20080;-70
2024/04/14 03:22:28;;;;;;;1999.90;999.90;;;15.80;99.90;;;;;;5518712;26;20414;-67
2024/04/14 03:24:54;;;;;;;1999.90;999.90;;;15.80;99.90;;;;;;5488215;26;20005;-66
2024/04/14 03:27:19;;;;;;;1999.90;999.90;;;15.80;99.90;;;;;;5488398;26;19998;-70
2024/04/14 03:29:46;;;;;;;1999.90;999.90;;;15.80;99.90;;;;;;5505239;26;20115;-66
2024/04/14 03:32:12;;;;;;;1999.90;999.90;;;15.80;99.90;;;;;;5524604;26;19997;-66
2024/04/14 03:34:38;;;;;;;1999.90;999.90;;;15.80;99.90;;;;;;5524518;26;20436;-66
2024/04/14 03:37:06;;;;;;;1999.90;999.90;;;15.80;99.90;;;;;;5524347;25;20013;-67
2024/04/14 03:39:32;;;;;;;1999.90;999.90;;;15.90;99.90;;;;;;5524248;26;20023;-67
2024/04/14 03:41:58;;;;;;;1999.90;999.90;;;15.90;99.90;;;;;;5524248;26;19993;-67
2024/04/14 03:44:23;;;;;;;1999.90;999.90;;;15.80;99.90;;;;;;5522475;26;19997;-70
2024/04/14 03:46:49;;;;;;;1999.90;999.90;;;15.80;99.90;;;;;;5524917;26;20025;-67
2024/04/14 03:49:15;;;;;;;1999.90;999.90;;;15.90;99.90;;;;;;5524328;26;19997;-67
2024/04/14 03:51:40;;;;;;;1999.90;999.90;;;15.90;99.90;;;;;;5523724;26;20061;-66
2024/04/14 03:54:06;;;;;;;1999.90;999.90;;;15.80;99.90;;;;;;5524328;26;20004;-67
2024/04/14 03:56:32;;;;;;;1999.90;999.90;;;15.80;99.90;;;;;;5522745;26;19997;-69
2024/04/14 03:58:57;;;;;;;1999.90;999.90;;;15.80;99.90;;;;;;5524365;26;20038;-70
2024/04/14 04:01:23;;;;;;;1999.90;999.90;;;15.80;99.90;;;;;;5524422;26;20506;-71
2024/04/14 04:03:51;;;;;;;1999.90;999.90;;;15.80;99.90;;;;;;5523371;26;19993;-66
2024/04/14 04:06:17;;;;;;;1999.90;999.90;;;15.80;99.90;;;;;;5524060;26;20037;-70
2024/04/14 04:08:44;;;;;;;1999.90;999.90;;;15.80;99.90;;;;;;5522341;26;20004;-66
2024/04/14 04:11:10;;;;;;;1999.90;999.90;;;15.70;99.90;;;;;;5524115;26;19989;-71
2024/04/14 04:13:35;;;;;;;1999.90;999.90;;;15.70;99.90;;;;;;5524135;26;19997;-67
2024/04/14 04:16:06;;;;;;;1999.90;999.90;;;15.70;99.90;;;;;;5523775;26;19998;-67
2024/04/14 04:18:32;;;;;;;1999.90;999.90;;;15.70;99.90;;;;;;5523932;26;20345;-67
2024/04/14 04:21:00;;;;;;;1999.90;999.90;;;15.60;99.90;;;;;;5523649;26;20025;-66
2024/04/14 04:23:26;;;;;;;1999.90;999.90;;;15.60;99.90;;;;;;5502781;26;20095;-67
2024/04/14 04:25:54;;;;;;;1999.90;999.90;;;15.60;99.90;;;;;;5486754;26;19998;-71
2024/04/14 04:28:20;;;;;;;1999.90;999.90;;;15.60;99.90;;;;;;5486748;26;20059;-67
2024/04/14 04:30:46;;;;;;;1999.90;999.90;;;15.50;99.90;;;;;;5519647;26;20013;-67
2024/04/14 04:33:11;;;;;;;1999.90;999.90;;;15.50;99.90;;;;;;5523565;26;19997;-66
2024/04/14 04:35:37;;;;;;;1999.90;999.90;;;15.50;99.90;;;;;;5523382;25;19993;-70
2024/04/14 04:38:03;;;;;;;1999.90;999.90;;;15.50;99.90;;;;;;5524006;26;19997;-71
2024/04/14 04:40:28;;;;;;;1999.90;999.90;;;15.50;99.90;;;;;;5523095;26;20016;-70
2024/04/14 04:42:55;;;;;;;1999.90;999.90;;;15.40;99.90;;;;;;5522665;26;20069;-67
2024/04/14 04:45:20;;;;;;;1999.90;999.90;;;15.40;99.90;;;;;;5523383;26;20000;-67
2024/04/14 04:47:46;;;;;;;1999.90;999.90;;;15.30;99.90;;;;;;5523346;26;20005;-66
2024/04/14 04:50:12;;;;;;;1999.90;999.90;;;15.30;99.90;;;;;;5523875;26;19997;-70
2024/04/14 04:52:38;;;;;;;1999.90;999.90;;;15.30;99.90;;;;;;5523396;26;19993;-71
2024/04/14 04:55:03;;;;;;;1999.90;999.90;;;15.30;99.90;;;;;;5523310;26;20053;-70
2024/04/14 04:57:29;;;;;;;1999.90;999.90;;;15.40;99.90;;;;;;5523355;26;20306;-71
2024/04/14 04:59:55;;;;;;;1999.90;999.90;;;15.40;99.90;;;;;;5523297;26;20001;-67
2024/04/14 05:02:21;;;;;;;1999.90;999.90;;;15.40;99.90;;;;;;5522843;26;19997;-67
2024/04/14 05:04:52;;;;;;;1999.90;999.90;;;15.40;99.90;;;;;;5521946;26;20385;-71
2024/04/14 05:07:18;;;;;;;1999.90;999.90;;;15.40;99.90;;;;;;5522984;26;19997;-66
2024/04/14 05:09:43;;;;;;;1999.90;999.90;;;15.40;99.90;;;;;;5523241;26;20305;-70
2024/04/14 05:12:09;;;;;;;1999.90;999.90;;;15.40;99.90;;;;;;5522636;26;20401;-66
2024/04/14 05:14:34;;;;;;;1999.90;999.90;;;15.40;99.90;;;;;;5522701;26;20005;-70
2024/04/14 05:17:00;;;;;;;1999.90;999.90;;;15.40;99.90;;;;;;5522940;26;20325;-70
2024/04/14 05:19:26;;;;;;;1999.90;999.90;;;15.40;99.90;;;;;;5522556;26;19994;-67
2024/04/14 05:21:51;;;;;;;1999.90;999.90;;;15.40;99.90;;;;;;5526639;26;19994;-71
2024/04/14 05:24:17;;;;;;;1999.90;999.90;;;15.40;99.90;;;;;;5490373;26;20075;-66
2024/04/14 05:26:42;;;;;;;1999.90;999.90;;;15.50;99.90;;;;;;5490265;26;19994;-67
2024/04/14 05:29:08;;;;;;;1999.90;999.90;;;15.50;99.90;;;;;;5497999;26;20014;-67
2024/04/14 05:31:33;;;;;;;1999.90;999.90;;;15.60;99.90;;;;;;5525686;26;19998;-71
2024/04/14 05:33:59;;;;;;;1999.90;999.90;;;15.60;99.90;;;;;;5526324;26;20001;-67
2024/04/14 05:36:25;;;;;;;1999.90;999.90;;;15.70;99.90;;;;;;5526239;26;20002;-71
2024/04/14 05:38:50;;;;;;;1999.90;999.90;;;15.70;99.90;;;;;;5526301;26;20409;-71
2024/04/14 05:41:16;;;;;;;1999.90;999.90;;;15.70;99.90;;;;;;5526211;26;20043;-67
2024/04/14 05:43:42;;;;;;;1999.90;999.90;;;15.80;99.90;;;;;;5526192;26;19993;-70
2024/04/14 05:46:08;;;;;;;1999.90;999.90;;;15.90;99.90;;;;;;5526362;26;19993;-71
2024/04/14 05:48:33;;;;;;;1999.90;999.90;;;16.00;99.90;;;;;;5526369;26;20003;-67
2024/04/14 05:50:59;;;;;;;1999.90;999.90;;;16.00;99.90;;;;;;5526443;26;20385;-66
2024/04/14 05:53:25;;;;;;;1999.90;999.90;;;16.10;99.90;;;;;;5526090;26;20000;-66
2024/04/14 05:55:50;;;;;;;1999.90;999.90;;;16.10;99.90;;;;;;5525453;26;20013;-71
2024/04/14 05:58:16;;;;;;;1999.90;999.90;;;16.20;99.90;;;;;;5526087;26;19993;-67
2024/04/14 06:00:42;;;;;;;1999.90;999.90;;;16.30;99.90;;;;;;5525857;26;20065;-67
2024/04/14 06:03:08;;;;;;;1999.90;999.90;;;16.40;99.90;;;;;;5525814;26;19989;-67
2024/04/14 06:05:34;;;;;;;1999.90;999.90;;;16.50;99.90;;;;;;5525982;26;19998;-66
2024/04/14 06:07:59;;;;;;;1999.90;999.90;;;16.60;99.90;;;;;;5525626;26;20015;-71
2024/04/14 06:10:26;;;;;;;1999.90;999.90;;;16.60;99.90;;;;;;5525654;26;20325;-67
2024/04/14 06:12:51;;;;;;;1999.90;999.90;;;16.70;99.90;;;;;;5525776;26;19989;-66
2024/04/14 06:15:17;;;;;;;1999.90;999.90;;;16.80;99.90;;;;;;5525598;26;20518;-67
2024/04/14 06:17:42;;;;;;;1999.90;999.90;;;16.90;99.90;;;;;;5525689;26;20004;-70
2024/04/14 06:20:08;;;;;;;1999.90;999.90;;;17.00;99.90;;;;;;5525648;26;20420;-71
2024/04/14 06:22:34;;;;;;;1999.90;999.90;;;17.10;99.90;;;;;;5518105;25;20043;-66
2024/04/14 06:25:00;;;;;;;1999.90;999.90;;;17.20;99.90;;;;;;5489369;26;20424;-67
2024/04/14 06:27:25;;;;;;;1999.90;999.90;;;17.30;99.90;;;;;;5488833;26;19990;-67
2024/04/14 06:29:51;;;;;;;1999.90;999.90;;;17.30;99.90;;;;;;5507891;26;20001;-71
2024/04/14 06:32:17;;;;;;;1999.90;999.90;;;17.40;99.90;;;;;;5524207;26;20012;-67
2024/04/14 06:34:42;;;;;;;1999.90;999.90;;;17.40;99.90;;;;;;5525474;26;20042;-67
2024/04/14 06:37:13;;;;;;;1999.90;999.90;;;17.50;99.90;;;;;;5525445;26;20000;-67
2024/04/14 06:39:39;;;;;;;1999.90;999.90;;;17.60;99.90;;;;;;5525395;26;19993;-67
2024/04/14 06:42:05;;;;;;;1999.90;999.90;;;17.60;99.90;;;;;;5525936;26;20008;-67
2024/04/14 06:44:31;;;;;;;1999.90;999.90;;;17.70;99.90;;;;;;5525303;26;20380;-67
2024/04/14 06:46:57;;;;;;;1999.90;999.90;;;17.70;99.90;;;;;;5525071;26;19993;-67
2024/04/14 06:49:23;;;;;;;1999.90;999.90;;;17.60;99.90;;;;;;5525562;26;20520;-71
2024/04/14 06:51:48;;;;;;;1999.90;999.90;;;17.50;99.90;;;;;;5524971;26;19990;-71
2024/04/14 06:54:14;;;;;;;1999.90;999.90;;;17.40;99.90;;;;;;5525293;26;19993;-67
2024/04/14 06:56:39;;;;;;;1999.90;999.90;;;17.40;99.90;;;;;;5523707;26;20005;-67
2024/04/14 06:59:05;;;;;;;1999.90;999.90;;;17.40;99.90;;;;;;5525061;26;20464;-71
2024/04/14 07:01:31;;;;;;;1999.90;999.90;;;17.30;99.90;;;;;;5525061;26;20036;-67
2024/04/14 07:03:57;;;;;;;1999.90;999.90;;;17.30;99.90;;;;;;5533206;25;20001;-67
2024/04/14 07:06:23;;;;;;;1999.90;999.90;;;17.30;99.90;;;;;;5525262;26;20439;-66
2024/04/14 07:08:48;;;;;;;1999.90;999.90;;;17.30;99.90;;;;;;5524896;26;19997;-67
2024/04/14 07:11:14;;;;;;;1999.90;999.90;;;17.30;99.90;;;;;;5524980;26;19989;-67
2024/04/14 07:13:40;;;;;;;1999.90;999.90;;;17.40;99.90;;;;;;5550316;25;20012;-67
2024/04/14 07:16:06;;;;;;;1999.90;999.90;;;17.40;99.90;;;;;;5562224;25;19989;-67
2024/04/14 07:18:31;;;;;;;1999.90;999.90;;;17.40;99.90;;;;;;5562320;25;20007;-67
2024/04/14 07:21:02;;;;;;;1999.90;999.90;;;17.30;99.90;;;;;;5562135;25;20000;-67
2024/04/14 07:23:30;;;;;;;1999.90;999.90;;;17.40;99.90;;;;;;5541379;25;20012;-67
2024/04/14 07:25:56;;;;;;;1999.90;999.90;;;17.40;99.90;;;;;;5524868;26;20039;-67
2024/04/14 07:28:21;;;;;;;1999.90;999.90;;;17.30;99.90;;;;;;5524861;26;19997;-71
2024/04/14 07:30:48;;;;;;;1999.90;999.90;;;17.30;99.90;;;;;;5524325;26;20012;-67
2024/04/14 07:33:14;;;;;;;1999.90;999.90;;;17.20;99.90;;;;;;5524474;26;20305;-71
2024/04/14 07:35:40;;;;;;;1999.90;999.90;;;17.30;99.90;;;;;;5524513;26;19989;-67
2024/04/14 07:38:06;;;;;;;1999.90;999.90;;;17.20;99.90;;;;;;5524572;26;20034;-71
2024/04/14 07:40:32;;;;;;;1999.90;999.90;;;17.30;99.90;;;;;;5524593;26;19996;-67
2024/04/14 07:42:57;;;;;;;1999.90;999.90;;;17.20;99.90;;;;;;5524088;26;20065;-67
2024/04/14 07:45:23;;;;;;;1999.90;999.90;;;17.20;99.90;;;;;;5524534;26;19989;-71
2024/04/14 07:47:49;;;;;;;1999.90;999.90;;;17.10;99.90;;;;;;5524161;26;19998;-67
2024/04/14 07:50:14;;;;;;;1999.90;999.90;;;16.90;99.90;;;;;;5524267;26;19989;-67
2024/04/14 07:52:40;;;;;;;1999.90;999.90;;;16.90;99.90;;;;;;5523891;26;20008;-71
2024/04/14 07:55:06;;;;;;;1999.90;999.90;;;16.90;99.90;;;;;;5523992;26;20008;-68
2024/04/14 07:57:31;;;;;;;1999.90;999.90;;;16.90;99.90;;;;;;5524307;26;20004;-67
2024/04/14 07:59:58;;;;;;;1999.90;999.90;;;16.90;99.90;;;;;;5524041;26;20003;-67
2024/04/14 08:02:23;;;;;;;1999.90;999.90;;;17.30;99.90;;;;;;5523664;26;20150;-71
2024/04/14 08:04:49;;;;;;;1999.90;999.90;;;18.90;99.90;;;;;;5523895;26;20001;-68
2024/04/14 08:07:15;;;;;;;1999.90;999.90;;;21.40;99.90;;;;;;5523585;26;20436;-71
2024/04/14 08:09:41;;;;;;;1999.90;999.90;;;23.30;99.90;;;;;;5523617;26;20064;-68
2024/04/14 08:12:06;;;;;;;1999.90;999.90;;;24.40;99.90;;;;;;5524171;25;20042;-68
2024/04/14 08:14:32;;;;;;;1999.90;999.90;;;25.60;99.90;;;;;;5523352;26;19999;-68
2024/04/14 08:16:58;;;;;;;1999.90;999.90;;;26.10;99.90;;;;;;5523896;26;19993;-72
2024/04/14 08:19:23;;;;;;;1999.90;999.90;;;26.40;99.90;;;;;;5523885;26;20402;-70
2024/04/14 08:21:49;;;;;;;1999.90;999.90;;;27.20;99.90;;;;;;5523768;26;19989;-70
2024/04/14 08:24:14;;;;;;;1999.90;999.90;;;28.10;99.90;;;;;;5523647;26;20012;-66
2024/04/14 08:26:40;;;;;;;1999.90;999.90;;;28.30;99.90;;;;;;5523655;26;20435;-66
2024/04/14 08:29:06;;;;;;;1999.90;999.90;;;28.30;99.90;;;;;;5524409;26;20077;-70
2024/04/14 08:31:31;;;;;;;1999.90;999.90;;;28.70;99.90;;;;;;5523116;26;19997;-70
2024/04/14 08:33:57;;;;;;;1999.90;999.90;;;29.10;99.90;;;;;;5521964;26;20079;-66
2024/04/14 08:36:23;;;;;;;1999.90;999.90;;;29.40;99.90;;;;;;5524175;26;20288;-66
2024/04/14 08:38:49;;;;;;;1999.90;999.90;;;29.50;99.90;;;;;;5523842;26;19994;-66
2024/04/14 08:41:19;;;;;;;1999.90;999.90;;;29.50;99.90;;;;;;5523429;26;19989;-66
2024/04/14 08:43:45;;;;;;;1999.90;999.90;;;29.80;99.90;;;;;;5523338;26;19999;-66
2024/04/14 08:46:16;;;;;;;1999.90;999.90;;;29.90;99.90;;;;;;5523133;26;20340;-70
2024/04/14 08:48:46;;;;;;;1999.90;999.90;;;29.80;99.90;;;;;;5523178;25;20002;-69
2024/04/14 08:51:15;;;;;;;1999.90;999.90;;;30.00;99.90;;;;;;5523494;26;20022;-66
2024/04/14 08:53:42;;;;;;;1999.90;999.90;;;30.30;99.90;;;;;;5522876;26;20001;-67
2024/04/14 08:56:09;;;;;;;1999.90;999.90;;;30.60;99.90;;;;;;5525869;26;20033;-66
2024/04/14 08:58:38;;;;;;;1999.90;999.90;;;30.80;99.90;;;;;;5526945;26;20436;-70
2024/04/14 09:01:09;;;;;;;1999.90;999.90;;;30.70;99.90;;;;;;5526830;26;19998;-67
2024/04/14 09:03:34;;;;;;;1999.90;999.90;;;30.70;99.90;;;;;;5526630;26;19993;-66
2024/04/14 09:06:05;;;;;;;1999.90;999.90;;;31.60;99.90;;;;;;5526713;26;20222;-67
2024/04/14 09:08:32;;;;;;;1999.90;999.90;;;31.60;99.90;;;;;;5527040;26;19997;-67
2024/04/14 09:10:57;;;;;;;1999.90;999.90;;;30.90;99.90;;;;;;5526451;26;20041;-67
2024/04/14 09:13:28;;;;;;;1999.90;999.90;;;30.80;99.90;;;;;;5526507;26;19998;-66
2024/04/14 09:15:55;;;;;;;1999.90;999.90;;;30.80;99.90;;;;;;5526458;26;20012;-66
2024/04/14 09:18:21;;;;;;;1999.90;999.90;;;30.90;99.90;;;;;;5526534;26;20012;-70
2024/04/14 09:20:46;;;;;;;1999.90;999.90;;;31.30;99.90;;;;;;5526445;26;20365;-66
2024/04/14 09:23:12;;;;;;;1999.90;999.90;;;31.50;99.90;;;;;;5509087;26;20017;-70
2024/04/14 09:25:37;;;;;;;1999.90;999.90;;;31.60;99.90;;;;;;5488442;26;20000;-69
2024/04/14 09:28:14;;;;;;;1999.90;999.90;;;31.00;99.90;;;;;;5489354;26;20005;-66
2024/04/14 09:30:40;;;;;;;1999.90;999.90;;;31.10;99.90;;;;;;5520661;26;19997;-70
2024/04/14 09:33:05;;;;;;;1999.90;999.90;;;31.00;99.90;;;;;;5526164;26;20004;-70
2024/04/14 09:35:33;;;;;;;1999.90;999.90;;;30.70;99.90;;;;;;5526445;26;19993;-70
2024/04/14 09:37:59;;;;;;;1999.90;999.90;;;31.30;99.90;;;;;;5526264;26;19989;-66
2024/04/14 09:40:25;;;;;;;1999.90;999.90;;;31.20;99.90;;;;;;5526185;26;19989;-71
2024/04/14 09:42:57;;;;;;;1999.90;999.90;;;31.00;99.90;;;;;;5526029;26;20001;-70
2024/04/14 09:45:24;;;;;;;1999.90;999.90;;;31.70;99.90;;;;;;5526176;26;20000;-67
2024/04/14 09:47:52;;;;;;;1999.90;999.90;;;31.90;99.90;;;;;;5526290;26;20008;-66
2024/04/14 09:50:22;;;;;;;1999.90;999.90;;;31.80;99.90;;;;;;5526108;26;19993;-71
2024/04/14 09:52:49;;;;;;;1999.90;999.90;;;32.10;99.90;;;;;;5526308;26;19994;-70
2024/04/14 09:55:15;;;;;;;1999.90;999.90;;;32.40;99.90;;;;;;5525862;26;20461;-67
2024/04/14 09:57:40;;;;;;;1999.90;999.90;;;31.50;99.90;;;;;;5525015;26;20001;-67
2024/04/14 10:00:08;;;;;;;1999.90;999.90;;;31.00;99.90;;;;;;5525976;26;20003;-66
2024/04/14 10:02:41;;;;;;;1999.90;999.90;;;30.50;99.90;;;;;;5525553;26;20056;-70
2024/04/14 10:05:09;;;;;;;1999.90;999.90;;;30.10;99.90;;;;;;5526517;26;20021;-70
2024/04/14 10:07:37;;;;;;;1999.90;999.90;;;28.70;99.90;;;;;;5525870;26;20061;-66
2024/04/14 10:10:05;;;;;;;1999.90;999.90;;;28.40;99.90;;;;;;5525539;26;19993;-67
2024/04/14 10:12:33;;;;;;;1999.90;999.90;;;28.40;99.90;;;;;;5525606;26;19997;-66
2024/04/14 10:15:05;;;;;;;1999.90;999.90;;;27.70;99.90;;;;;;5526241;26;19994;-70
2024/04/14 10:17:34;;;;;;;1999.90;999.90;;;26.80;99.90;;;;;;5526244;26;20004;-70
2024/04/14 10:20:17;;;;;;;1999.90;999.90;;;26.50;99.90;;;;;;5525640;26;20322;-66
2024/04/14 10:22:45;;;;;;;1999.90;999.90;;;26.50;99.90;;;;;;5516167;26;20445;-69
2024/04/14 10:25:22;;;;;;;1999.90;999.90;;;26.20;99.90;;;;;;5488802;26;20010;-66
2024/04/14 10:27:48;;;;;;;1999.90;999.90;;;26.00;99.90;;;;;;5488570;26;20448;-71
2024/04/14 10:30:21;;;;;;;1999.90;999.90;;;25.10;99.90;;;;;;5488688;26;19998;-71
2024/04/14 10:32:47;;;;;;;1999.90;999.90;;;25.00;99.90;;;;;;5521265;26;19997;-68
2024/04/14 10:35:15;;;;;;;1999.90;999.90;;;25.10;99.90;;;;;;5525695;26;20420;-72
2024/04/14 10:37:51;;;;;;;1999.90;999.90;;;25.00;99.90;;;;;;5525419;26;20021;-68
2024/04/14 10:40:18;;;;;;;1999.90;999.90;;;25.10;99.90;;;;;;5525562;26;20001;-71
2024/04/14 10:42:45;;;;;;;1999.90;999.90;;;25.10;99.90;;;;;;5525415;26;20029;-71
2024/04/14 10:45:11;;;;;;;1999.90;999.90;;;25.00;99.90;;;;;;5525407;26;20038;-72
2024/04/14 10:47:37;;;;;;;1999.90;999.90;;;24.90;99.90;;;;;;5525286;26;19989;-71
2024/04/14 10:50:03;;;;;;;1999.90;999.90;;;24.90;99.90;;;;;;5525528;26;20404;-67
2024/04/14 10:52:28;;;;;;;1999.90;999.90;;;24.70;99.90;;;;;;5524039;26;20071;-67
2024/04/14 10:54:54;;;;;;;1999.90;999.90;;;24.10;99.90;;;;;;5525660;26;20313;-71
2024/04/14 10:57:19;;;;;;;1999.90;999.90;;;24.20;99.90;;;;;;5525616;26;19997;-71
2024/04/14 10:59:45;;;;;;;1999.90;999.90;;;24.60;99.90;;;;;;5525752;26;19997;-70
2024/04/14 11:02:11;;;;;;;1999.90;999.90;;;24.90;99.90;;;;;;5525539;26;19993;-71
2024/04/14 11:04:38;;;;;;;1999.90;999.90;;;25.10;99.90;;;;;;5525265;26;19998;-68
2024/04/14 11:07:04;;;;;;;1999.90;999.90;;;25.00;99.90;;;;;;5525409;26;20324;-71
2024/04/14 11:09:30;;;;;;;1999.90;999.90;;;24.80;99.90;;;;;;5525187;26;19997;-66
2024/04/14 11:11:58;;;;;;;1999.90;999.90;;;24.60;99.90;;;;;;5525388;25;20313;-70
2024/04/14 11:14:25;;;;;;;1999.90;999.90;;;24.70;99.90;;;;;;5525289;26;19989;-67
2024/04/14 11:16:50;;;;;;;1999.90;999.90;;;25.10;99.90;;;;;;5524829;26;20001;-67
2024/04/14 11:19:16;;;;;;;1999.90;999.90;;;25.50;99.90;;;;;;5524731;26;20373;-67
2024/04/14 11:21:42;;;;;;;1999.90;999.90;;;25.90;99.90;;;;;;5524916;26;20065;-67
2024/04/14 11:24:10;;;;;;;1999.90;999.90;;;25.90;99.90;;;;;;5493397;26;20078;-67
2024/04/14 11:26:39;;;;;;;1999.90;999.90;;;26.10;99.90;;;;;;5487868;26;20438;-68
2024/04/14 11:29:05;;;;;;;1999.90;999.90;;;26.20;99.90;;;;;;5495370;26;20001;-67
2024/04/14 11:31:34;;;;;;;1999.90;999.90;;;25.70;99.90;;;;;;5524192;26;20009;-68
2024/04/14 11:33:59;;;;;;;1999.90;999.90;;;25.50;99.90;;;;;;5524649;26;20387;-71
2024/04/14 11:36:39;;;;;;;1999.90;999.90;;;25.20;99.90;;;;;;5524663;26;20039;-71
2024/04/14 11:39:04;;;;;;;1999.90;999.90;;;25.10;99.90;;;;;;5525228;26;19998;-71
2024/04/14 11:41:31;;;;;;;1999.90;999.90;;;25.00;99.90;;;;;;5524383;26;19990;-67
2024/04/14 11:43:57;;;;;;;1999.90;999.90;;;25.10;99.90;;;;;;5523776;26;20452;-67
2024/04/14 11:46:22;;;;;;;1999.90;999.90;;;24.70;99.90;;;;;;5524468;26;19993;-67
2024/04/14 11:48:48;;;;;;;1999.90;999.90;;;24.40;99.90;;;;;;5524230;26;20422;-67
2024/04/14 11:51:14;;;;;;;1999.90;999.90;;;24.70;99.90;;;;;;5524223;25;20435;-67
2024/04/14 11:53:40;;;;;;;1999.90;999.90;;;24.80;99.90;;;;;;5524168;26;20004;-71
2024/04/14 11:56:06;;;;;;;1999.90;999.90;;;24.70;99.90;;;;;;5524246;26;20009;-67